Terminal Aerodrome Forecast
Issued by NWS

Current Version | Previous Version | Text Only | Print | Product List | Glossary On
Versions: 1 2 3 4 5 6 7 8 9 10 11 12 13 14 15 16 17 18 19 20 21 22 23 24 25 26 27 28 29 30 31 32 33 34 35 36 37 38 39 40 41 42 43 44 45 46 47 48 49
000
FTUS46 KEKA 050541
TAFACV
TAF
KACV 050541Z 0506/0606 VRB03KT 4SM BR OVC005
     FM051500 VRB03KT 6SM BR BKN005 OVC015
     FM051800 30007KT P6SM FEW009 SCT015 OVC030
     FM052100 32012KT P6SM BKN025 OVC050
     FM060000 32012KT P6SM VCSH FEW010 BKN025 OVC050=

USA.gov is the U.S. government's official web portal to all federal, state and local government web resources and services.